KDRO

Durango-La Plata County Airport

Durango, Colorado, USA
METAR KDRO 212253Z 24011G20KT 10SM CLR 23/09 A3032 RMK AO2 LTG DSNT SE AND S SLP179 T02330094
Observed Flight Rules
Aug-21 @ 22:53 UTC (54 minutes ago) Visual Flight Rules
Wind Visibility Clouds
240° at 11 knots
 Gusting to 20 knots
10 miles
  • Clear skies
Temperatures Readings
Current 23°C / 73°F
Dewpoint 9°C / 48°F
Humidity 41%
Altimeter 30.32" Hg
Pressure 1017.9 hPa
Elevation 2035
METAR KDRO 212253Z 24011G20KT 10SM CLR 23/09 A3032 RMK AO2 LTG DSNT SE AND S SLP179 T02330094
Observed Flight Rules
Aug-21 @ 22:53 UTC
(54 minutes ago)
VFR
Wind Visibility
240° at 11 knots
 Gusting to 20 knots
10 miles
Clouds
  • Clear skies
Temperature Dewpoint
23°C / 73°F 9°C / 48°F
Humidity Altimeter Pressure
41% 30.32" Hg 1017.9 hPa